sensor_id;sensor_type;location;lat;lon;timestamp;pressure;altitude;pressure_sealevel;temperature;humidity
25526;BME280;13424;48.424;11.258;2023-05-29T00:00:32;95594.47;;;18.68;52.12
25526;BME280;13424;48.424;11.258;2023-05-29T00:02:58;95586.97;;;18.60;52.08
25526;BME280;13424;48.424;11.258;2023-05-29T00:05:24;95593.66;;;18.44;52.49
25526;BME280;13424;48.424;11.258;2023-05-29T00:11:56;95589.53;;;17.12;58.72
25526;BME280;13424;48.424;11.258;2023-05-29T00:14:22;95590.50;;;17.26;58.80
25526;BME280;13424;48.424;11.258;2023-05-29T00:16:50;95596.78;;;17.50;55.22
25526;BME280;13424;48.424;11.258;2023-05-29T00:19:16;95589.53;;;17.80;54.85
25526;BME280;13424;48.424;11.258;2023-05-29T00:21:43;95594.56;;;17.57;55.92
25526;BME280;13424;48.424;11.258;2023-05-29T00:24:09;95590.28;;;17.22;58.27
25526;BME280;13424;48.424;11.258;2023-05-29T00:26:35;95582.63;;;16.46;59.22
25526;BME280;13424;48.424;11.258;2023-05-29T00:29:01;95583.03;;;16.09;60.45
25526;BME280;13424;48.424;11.258;2023-05-29T00:31:27;95584.50;;;15.76;61.59
25526;BME280;13424;48.424;11.258;2023-05-29T00:33:53;95586.91;;;15.62;63.71
25526;BME280;13424;48.424;11.258;2023-05-29T00:37:06;95592.25;;;15.87;61.23
25526;BME280;13424;48.424;11.258;2023-05-29T00:39:32;95599.50;;;15.92;61.30
25526;BME280;13424;48.424;11.258;2023-05-29T00:41:58;95586.88;;;15.98;60.42
25526;BME280;13424;48.424;11.258;2023-05-29T00:44:24;95593.25;;;16.22;60.38
25526;BME280;13424;48.424;11.258;2023-05-29T00:46:52;95589.50;;;16.13;60.53
25526;BME280;13424;48.424;11.258;2023-05-29T00:49:20;95593.47;;;16.36;61.22
25526;BME280;13424;48.424;11.258;2023-05-29T00:51:46;95594.88;;;16.13;60.24
25526;BME280;13424;48.424;11.258;2023-05-29T00:54:16;95590.13;;;15.89;62.60
25526;BME280;13424;48.424;11.258;2023-05-29T01:00:55;95579.94;;;15.15;65.22
25526;BME280;13424;48.424;11.258;2023-05-29T01:03:22;95585.06;;;15.17;65.00
25526;BME280;13424;48.424;11.258;2023-05-29T01:05:48;95588.28;;;15.03;65.16
25526;BME280;13424;48.424;11.258;2023-05-29T01:08:14;95590.13;;;14.98;65.21
25526;BME280;13424;48.424;11.258;2023-05-29T01:10:40;95593.91;;;15.02;65.52
25526;BME280;13424;48.424;11.258;2023-05-29T01:13:21;95594.72;;;15.69;61.00
25526;BME280;13424;48.424;11.258;2023-05-29T01:16:16;95598.91;;;16.15;59.64
25526;BME280;13424;48.424;11.258;2023-05-29T01:18:51;95596.38;;;16.44;58.67
25526;BME280;13424;48.424;11.258;2023-05-29T01:21:42;95592.66;;;16.30;60.09
25526;BME280;13424;48.424;11.258;2023-05-29T01:27:12;95595.50;;;15.54;63.78
25526;BME280;13424;48.424;11.258;2023-05-29T01:29:40;95589.63;;;15.21;64.12
25526;BME280;13424;48.424;11.258;2023-05-29T01:32:08;95580.75;;;14.95;65.29
25526;BME280;13424;48.424;11.258;2023-05-29T01:34:34;95588.47;;;14.66;65.45
25526;BME280;13424;48.424;11.258;2023-05-29T01:37:00;95589.59;;;14.91;65.80
25526;BME280;13424;48.424;11.258;2023-05-29T01:39:26;95586.88;;;14.65;65.66
25526;BME280;13424;48.424;11.258;2023-05-29T01:41:52;95582.28;;;14.66;65.84
25526;BME280;13424;48.424;11.258;2023-05-29T01:44:20;95585.75;;;14.61;66.01
25526;BME280;13424;48.424;11.258;2023-05-29T01:46:46;95587.41;;;14.62;66.33
25526;BME280;13424;48.424;11.258;2023-05-29T01:49:13;95585.50;;;14.58;66.62
25526;BME280;13424;48.424;11.258;2023-05-29T01:51:41;95586.31;;;14.58;66.61
25526;BME280;13424;48.424;11.258;2023-05-29T01:54:07;95583.13;;;14.71;65.13
25526;BME280;13424;48.424;11.258;2023-05-29T01:56:34;95580.94;;;14.58;66.26
25526;BME280;13424;48.424;11.258;2023-05-29T01:59:02;95586.38;;;14.78;65.92
25526;BME280;13424;48.424;11.258;2023-05-29T02:01:29;95579.06;;;14.69;66.74
25526;BME280;13424;48.424;11.258;2023-05-29T02:03:56;95588.78;;;15.16;65.22
25526;BME280;13424;48.424;11.258;2023-05-29T02:06:22;95590.97;;;15.19;63.99
25526;BME280;13424;48.424;11.258;2023-05-29T02:08:48;95592.28;;;15.16;63.83
25526;BME280;13424;48.424;11.258;2023-05-29T02:11:14;95591.25;;;15.17;63.62
25526;BME280;13424;48.424;11.258;2023-05-29T02:13:41;95595.25;;;15.04;64.13
25526;BME280;13424;48.424;11.258;2023-05-29T02:16:08;95596.06;;;14.95;63.65
25526;BME280;13424;48.424;11.258;2023-05-29T02:22:41;95591.31;;;14.34;66.20
25526;BME280;13424;48.424;11.258;2023-05-29T02:25:09;95593.81;;;14.46;66.96
25526;BME280;13424;48.424;11.258;2023-05-29T02:27:35;95591.59;;;14.43;67.36
25526;BME280;13424;48.424;11.258;2023-05-29T02:30:00;95591.66;;;13.95;66.67
25526;BME280;13424;48.424;11.258;2023-05-29T02:32:26;95589.00;;;14.63;66.25
25526;BME280;13424;48.424;11.258;2023-05-29T02:34:54;95582.53;;;14.49;66.49
25526;BME280;13424;48.424;11.258;2023-05-29T02:37:19;95587.38;;;14.47;67.00
25526;BME280;13424;48.424;11.258;2023-05-29T02:39:45;95586.41;;;14.21;67.66
25526;BME280;13424;48.424;11.258;2023-05-29T02:42:36;95588.19;;;13.95;68.16
25526;BME280;13424;48.424;11.258;2023-05-29T02:45:04;95583.72;;;14.16;67.62
25526;BME280;13424;48.424;11.258;2023-05-29T02:47:31;95585.66;;;14.36;66.92
25526;BME280;13424;48.424;11.258;2023-05-29T02:49:57;95580.97;;;14.73;64.93
25526;BME280;13424;48.424;11.258;2023-05-29T02:52:23;95587.72;;;14.86;65.41
25526;BME280;13424;48.424;11.258;2023-05-29T02:54:49;95584.47;;;14.84;65.66
25526;BME280;13424;48.424;11.258;2023-05-29T02:57:15;95587.16;;;14.84;65.56
25526;BME280;13424;48.424;11.258;2023-05-29T02:59:41;95578.28;;;14.63;65.26
25526;BME280;13424;48.424;11.258;2023-05-29T03:02:09;95586.75;;;14.35;65.98
25526;BME280;13424;48.424;11.258;2023-05-29T03:04:44;95586.91;;;14.80;64.50
25526;BME280;13424;48.424;11.258;2023-05-29T03:07:12;95586.63;;;14.92;64.20
25526;BME280;13424;48.424;11.258;2023-05-29T03:09:38;95583.16;;;15.02;63.77
25526;BME280;13424;48.424;11.258;2023-05-29T03:12:05;95591.72;;;14.78;65.52
25526;BME280;13424;48.424;11.258;2023-05-29T03:14:30;95585.59;;;14.15;67.66
25526;BME280;13424;48.424;11.258;2023-05-29T03:17:05;95583.94;;;13.99;68.63
25526;BME280;13424;48.424;11.258;2023-05-29T03:19:31;95582.28;;;13.98;68.20
25526;BME280;13424;48.424;11.258;2023-05-29T03:21:57;95581.75;;;13.96;68.67
25526;BME280;13424;48.424;11.258;2023-05-29T03:24:23;95586.94;;;14.18;67.92
25526;BME280;13424;48.424;11.258;2023-05-29T03:26:51;95587.91;;;14.49;66.71
25526;BME280;13424;48.424;11.258;2023-05-29T03:29:18;95590.63;;;14.64;66.08
25526;BME280;13424;48.424;11.258;2023-05-29T03:31:45;95593.72;;;14.36;67.45
25526;BME280;13424;48.424;11.258;2023-05-29T03:34:23;95591.06;;;14.41;67.98
25526;BME280;13424;48.424;11.258;2023-05-29T03:36:55;95592.13;;;14.45;67.90
25526;BME280;13424;48.424;11.258;2023-05-29T03:39:23;95598.28;;;14.35;68.67
25526;BME280;13424;48.424;11.258;2023-05-29T03:41:49;95602.50;;;14.21;68.28
25526;BME280;13424;48.424;11.258;2023-05-29T03:44:15;95602.44;;;14.06;68.92
25526;BME280;13424;48.424;11.258;2023-05-29T03:46:41;95602.34;;;14.38;67.64
25526;BME280;13424;48.424;11.258;2023-05-29T03:49:07;95603.94;;;14.44;67.65
25526;BME280;13424;48.424;11.258;2023-05-29T03:51:34;95612.00;;;14.44;68.32
25526;BME280;13424;48.424;11.258;2023-05-29T03:54:01;95610.44;;;14.48;68.61
25526;BME280;13424;48.424;11.258;2023-05-29T03:56:27;95614.91;;;14.37;68.81
25526;BME280;13424;48.424;11.258;2023-05-29T03:58:53;95611.13;;;14.23;68.91
25526;BME280;13424;48.424;11.258;2023-05-29T04:01:19;95617.22;;;14.13;68.65
25526;BME280;13424;48.424;11.258;2023-05-29T04:03:45;95617.50;;;14.07;69.18
25526;BME280;13424;48.424;11.258;2023-05-29T04:06:13;95613.56;;;14.35;68.58
25526;BME280;13424;48.424;11.258;2023-05-29T04:08:39;95615.22;;;14.41;68.44
25526;BME280;13424;48.424;11.258;2023-05-29T04:11:05;95619.31;;;14.54;68.27
25526;BME280;13424;48.424;11.258;2023-05-29T04:13:31;95620.09;;;14.49;67.56
25526;BME280;13424;48.424;11.258;2023-05-29T04:15:56;95618.28;;;14.65;66.98
25526;BME280;13424;48.424;11.258;2023-05-29T04:18:22;95613.53;;;15.23;65.70
25526;BME280;13424;48.424;11.258;2023-05-29T04:20:51;95621.06;;;15.26;64.94
25526;BME280;13424;48.424;11.258;2023-05-29T04:23:17;95628.06;;;15.68;64.17
25526;BME280;13424;48.424;11.258;2023-05-29T04:25:43;95638.25;;;15.76;63.31
25526;BME280;13424;48.424;11.258;2023-05-29T04:28:09;95631.72;;;16.23;62.34
25526;BME280;13424;48.424;11.258;2023-05-29T04:30:36;95626.50;;;16.46;61.46
25526;BME280;13424;48.424;11.258;2023-05-29T04:33:03;95631.44;;;16.29;61.25
25526;BME280;13424;48.424;11.258;2023-05-29T04:35:30;95637.97;;;16.78;60.76
25526;BME280;13424;48.424;11.258;2023-05-29T04:37:58;95633.72;;;16.61;61.49
25526;BME280;13424;48.424;11.258;2023-05-29T04:40:29;95638.78;;;16.73;61.12
25526;BME280;13424;48.424;11.258;2023-05-29T04:42:57;95640.78;;;16.47;62.00
25526;BME280;13424;48.424;11.258;2023-05-29T04:45:27;95639.13;;;16.56;61.88
25526;BME280;13424;48.424;11.258;2023-05-29T04:47:53;95637.50;;;16.55;62.04
25526;BME280;13424;48.424;11.258;2023-05-29T04:50:22;95639.81;;;16.82;61.32
25526;BME280;13424;48.424;11.258;2023-05-29T04:56:59;95655.22;;;17.21;60.01
25526;BME280;13424;48.424;11.258;2023-05-29T04:59:29;95647.78;;;17.08;60.92
25526;BME280;13424;48.424;11.258;2023-05-29T05:01:55;95646.50;;;17.34;59.77
25526;BME280;13424;48.424;11.258;2023-05-29T05:04:21;95652.50;;;17.26;59.07
25526;BME280;13424;48.424;11.258;2023-05-29T05:06:47;95650.19;;;17.48;59.33
25526;BME280;13424;48.424;11.258;2023-05-29T05:09:13;95663.66;;;17.48;59.64
25526;BME280;13424;48.424;11.258;2023-05-29T05:11:40;95653.84;;;18.74;56.21
25526;BME280;13424;48.424;11.258;2023-05-29T05:14:07;95661.50;;;19.79;53.51
25526;BME280;13424;48.424;11.258;2023-05-29T05:16:33;95662.22;;;20.31;52.46
25526;BME280;13424;48.424;11.258;2023-05-29T05:18:59;95674.38;;;21.53;49.69
25526;BME280;13424;48.424;11.258;2023-05-29T05:21:25;95685.53;;;22.49;48.27
25526;BME280;13424;48.424;11.258;2023-05-29T05:23:57;95677.53;;;22.44;48.97
25526;BME280;13424;48.424;11.258;2023-05-29T05:26:23;95673.00;;;21.41;51.43
25526;BME280;13424;48.424;11.258;2023-05-29T05:28:51;95676.41;;;21.92;50.86
25526;BME280;13424;48.424;11.258;2023-05-29T05:31:17;95676.19;;;23.12;47.03
25526;BME280;13424;48.424;11.258;2023-05-29T05:33:43;95681.63;;;23.30;47.14
25526;BME280;13424;48.424;11.258;2023-05-29T05:36:09;95684.31;;;23.04;46.95
25526;BME280;13424;48.424;11.258;2023-05-29T05:42:11;95690.56;;;23.13;47.18
25526;BME280;13424;48.424;11.258;2023-05-29T05:44:46;95687.44;;;21.51;49.53
25526;BME280;13424;48.424;11.258;2023-05-29T05:47:13;95687.69;;;20.30;51.75
25526;BME280;13424;48.424;11.258;2023-05-29T05:49:39;95686.63;;;20.13;52.56
25526;BME280;13424;48.424;11.258;2023-05-29T05:52:06;95687.13;;;19.68;53.41
25526;BME280;13424;48.424;11.258;2023-05-29T05:54:32;95683.88;;;19.66;53.39
25526;BME280;13424;48.424;11.258;2023-05-29T05:56:58;95683.31;;;19.69;53.99
25526;BME280;13424;48.424;11.258;2023-05-29T05:59:24;95684.56;;;19.39;54.45
25526;BME280;13424;48.424;11.258;2023-05-29T06:01:50;95688.34;;;19.76;53.94
25526;BME280;13424;48.424;11.258;2023-05-29T06:04:17;95686.72;;;19.56;54.12
25526;BME280;13424;48.424;11.258;2023-05-29T06:06:44;95692.19;;;19.89;53.64
25526;BME280;13424;48.424;11.258;2023-05-29T06:09:10;95699.78;;;20.79;52.62
25526;BME280;13424;48.424;11.258;2023-05-29T06:11:37;95704.09;;;20.53;53.23
25526;BME280;13424;48.424;11.258;2023-05-29T06:14:04;95705.88;;;20.44;53.01
25526;BME280;13424;48.424;11.258;2023-05-29T06:16:30;95708.81;;;20.61;53.05
25526;BME280;13424;48.424;11.258;2023-05-29T06:18:56;95705.09;;;20.57;53.14
25526;BME280;13424;48.424;11.258;2023-05-29T06:21:23;95714.00;;;21.26;52.59
25526;BME280;13424;48.424;11.258;2023-05-29T06:23:53;95714.91;;;21.22;52.23
25526;BME280;13424;48.424;11.258;2023-05-29T06:26:20;95715.56;;;21.55;51.89
25526;BME280;13424;48.424;11.258;2023-05-29T06:28:48;95721.22;;;21.17;52.28
25526;BME280;13424;48.424;11.258;2023-05-29T06:31:14;95723.63;;;21.82;52.58
25526;BME280;13424;48.424;11.258;2023-05-29T06:33:40;95718.22;;;21.32;55.06
25526;BME280;13424;48.424;11.258;2023-05-29T06:36:06;95719.47;;;21.85;52.71
25526;BME280;13424;48.424;11.258;2023-05-29T06:38:32;95718.28;;;21.55;52.54
25526;BME280;13424;48.424;11.258;2023-05-29T06:40:58;95720.16;;;21.18;53.50
25526;BME280;13424;48.424;11.258;2023-05-29T06:43:24;95716.41;;;21.41;52.01
25526;BME280;13424;48.424;11.258;2023-05-29T06:45:56;95725.16;;;22.19;52.61
25526;BME280;13424;48.424;11.258;2023-05-29T06:48:22;95731.19;;;21.94;53.05
25526;BME280;13424;48.424;11.258;2023-05-29T06:50:48;95729.16;;;21.77;53.13
25526;BME280;13424;48.424;11.258;2023-05-29T06:53:38;95738.09;;;22.67;49.73
25526;BME280;13424;48.424;11.258;2023-05-29T06:56:04;95730.41;;;22.38;52.25
25526;BME280;13424;48.424;11.258;2023-05-29T06:58:32;95736.59;;;22.92;51.45
25526;BME280;13424;48.424;11.258;2023-05-29T07:00:58;95749.44;;;23.00;47.88
25526;BME280;13424;48.424;11.258;2023-05-29T07:03:35;95742.97;;;22.88;50.08
25526;BME280;13424;48.424;11.258;2023-05-29T07:06:04;95740.22;;;23.36;49.67
25526;BME280;13424;48.424;11.258;2023-05-29T07:08:30;95743.44;;;23.38;49.22
25526;BME280;13424;48.424;11.258;2023-05-29T07:10:56;95747.88;;;23.17;48.73
25526;BME280;13424;48.424;11.258;2023-05-29T07:13:24;95746.47;;;23.36;49.53
25526;BME280;13424;48.424;11.258;2023-05-29T07:15:50;95745.13;;;23.74;49.35
25526;BME280;13424;48.424;11.258;2023-05-29T07:18:20;95742.13;;;23.27;50.03
25526;BME280;13424;48.424;11.258;2023-05-29T07:20:46;95746.19;;;23.55;49.34
25526;BME280;13424;48.424;11.258;2023-05-29T07:23:15;95745.69;;;23.53;50.06
25526;BME280;13424;48.424;11.258;2023-05-29T07:25:41;95745.97;;;23.26;50.03
25526;BME280;13424;48.424;11.258;2023-05-29T07:28:06;95748.22;;;23.24;50.43
25526;BME280;13424;48.424;11.258;2023-05-29T07:30:32;95751.75;;;23.33;50.01
25526;BME280;13424;48.424;11.258;2023-05-29T07:32:58;95748.78;;;23.78;49.69
25526;BME280;13424;48.424;11.258;2023-05-29T07:35:24;95747.84;;;23.82;49.58
25526;BME280;13424;48.424;11.258;2023-05-29T07:37:50;95759.91;;;23.24;50.39
25526;BME280;13424;48.424;11.258;2023-05-29T07:40:18;95751.44;;;23.26;50.32
25526;BME280;13424;48.424;11.258;2023-05-29T07:43:10;95753.13;;;23.79;49.85
25526;BME280;13424;48.424;11.258;2023-05-29T07:45:56;95757.44;;;24.23;48.11
25526;BME280;13424;48.424;11.258;2023-05-29T07:48:23;95754.72;;;24.06;48.64
25526;BME280;13424;48.424;11.258;2023-05-29T07:50:50;95760.03;;;24.02;48.00
25526;BME280;13424;48.424;11.258;2023-05-29T07:53:17;95754.88;;;24.18;49.25
25526;BME280;13424;48.424;11.258;2023-05-29T07:55:44;95762.56;;;24.16;50.43
25526;BME280;13424;48.424;11.258;2023-05-29T07:58:10;95756.16;;;24.38;49.55
25526;BME280;13424;48.424;11.258;2023-05-29T08:00:37;95752.16;;;24.44;49.49
25526;BME280;13424;48.424;11.258;2023-05-29T08:03:04;95753.06;;;24.65;48.00
25526;BME280;13424;48.424;11.258;2023-05-29T08:05:31;95752.81;;;23.89;48.34
25526;BME280;13424;48.424;11.258;2023-05-29T08:08:03;95759.38;;;23.97;49.56
25526;BME280;13424;48.424;11.258;2023-05-29T08:10:29;95758.03;;;24.63;48.36
25526;BME280;13424;48.424;11.258;2023-05-29T08:12:55;95755.19;;;24.51;50.43
25526;BME280;13424;48.424;11.258;2023-05-29T08:15:21;95758.41;;;24.44;47.40
25526;BME280;13424;48.424;11.258;2023-05-29T08:17:49;95751.16;;;24.57;48.81
25526;BME280;13424;48.424;11.258;2023-05-29T08:20:15;95753.91;;;24.22;48.25
25526;BME280;13424;48.424;11.258;2023-05-29T08:22:42;95755.66;;;23.58;49.25
25526;BME280;13424;48.424;11.258;2023-05-29T08:25:08;95756.16;;;24.20;48.01
25526;BME280;13424;48.424;11.258;2023-05-29T08:27:34;95758.47;;;24.83;47.32
25526;BME280;13424;48.424;11.258;2023-05-29T08:29:59;95763.53;;;24.37;47.72
25526;BME280;13424;48.424;11.258;2023-05-29T08:32:25;95758.81;;;24.64;46.84
25526;BME280;13424;48.424;11.258;2023-05-29T08:34:51;95755.13;;;25.15;46.65
25526;BME280;13424;48.424;11.258;2023-05-29T08:37:17;95762.88;;;25.64;45.69
25526;BME280;13424;48.424;11.258;2023-05-29T08:39:43;95757.47;;;25.55;45.83
25526;BME280;13424;48.424;11.258;2023-05-29T08:42:13;95759.03;;;24.97;46.61
25526;BME280;13424;48.424;11.258;2023-05-29T08:44:40;95754.38;;;25.36;45.33
25526;BME280;13424;48.424;11.258;2023-05-29T08:47:07;95746.25;;;25.98;44.35
25526;BME280;13424;48.424;11.258;2023-05-29T08:49:43;95748.59;;;25.08;45.67
25526;BME280;13424;48.424;11.258;2023-05-29T08:52:19;95755.97;;;24.98;47.23
25526;BME280;13424;48.424;11.258;2023-05-29T08:54:45;95759.97;;;25.10;44.31
25526;BME280;13424;48.424;11.258;2023-05-29T08:57:12;95756.72;;;25.46;44.07
25526;BME280;13424;48.424;11.258;2023-05-29T08:59:42;95754.09;;;25.28;45.18
25526;BME280;13424;48.424;11.258;2023-05-29T09:02:10;95757.41;;;25.13;44.65
25526;BME280;13424;48.424;11.258;2023-05-29T09:04:37;95753.97;;;24.78;43.73
25526;BME280;13424;48.424;11.258;2023-05-29T09:07:03;95749.94;;;24.84;47.76
25526;BME280;13424;48.424;11.258;2023-05-29T09:09:32;95755.44;;;25.73;40.88
25526;BME280;13424;48.424;11.258;2023-05-29T09:11:58;95764.81;;;25.63;43.24
25526;BME280;13424;48.424;11.258;2023-05-29T09:14:38;95767.50;;;26.67;42.48
25526;BME280;13424;48.424;11.258;2023-05-29T09:17:06;95764.25;;;26.86;40.04
25526;BME280;13424;48.424;11.258;2023-05-29T09:19:35;95769.72;;;26.98;41.02
25526;BME280;13424;48.424;11.258;2023-05-29T09:22:03;95764.56;;;26.85;40.94
25526;BME280;13424;48.424;11.258;2023-05-29T09:24:32;95762.72;;;26.10;44.52
25526;BME280;13424;48.424;11.258;2023-05-29T09:27:00;95763.50;;;26.65;41.49
25526;BME280;13424;48.424;11.258;2023-05-29T09:33:03;95754.19;;;25.11;44.04
25526;BME280;13424;48.424;11.258;2023-05-29T09:35:38;95762.66;;;26.52;40.54
25526;BME280;13424;48.424;11.258;2023-05-29T09:38:04;95763.50;;;26.32;42.46
25526;BME280;13424;48.424;11.258;2023-05-29T09:40:32;95759.88;;;26.73;42.55
25526;BME280;13424;48.424;11.258;2023-05-29T09:43:10;95755.16;;;27.07;41.26
25526;BME280;13424;48.424;11.258;2023-05-29T09:45:41;95757.13;;;26.73;38.84
25526;BME280;13424;48.424;11.258;2023-05-29T09:48:12;95758.97;;;26.93;41.94
25526;BME280;13424;48.424;11.258;2023-05-29T09:50:39;95751.34;;;26.21;42.45
25526;BME280;13424;48.424;11.258;2023-05-29T09:53:18;95758.56;;;26.25;42.87
25526;BME280;13424;48.424;11.258;2023-05-29T09:55:53;95759.63;;;26.66;42.24
25526;BME280;13424;48.424;11.258;2023-05-29T09:58:21;95765.50;;;26.89;40.62
25526;BME280;13424;48.424;11.258;2023-05-29T10:00:47;95767.75;;;26.41;43.08
25526;BME280;13424;48.424;11.258;2023-05-29T10:03:14;95758.03;;;26.77;42.26
25526;BME280;13424;48.424;11.258;2023-05-29T10:05:49;95757.94;;;26.74;41.14
25526;BME280;13424;48.424;11.258;2023-05-29T10:08:18;95753.91;;;26.59;46.06
25526;BME280;13424;48.424;11.258;2023-05-29T10:10:54;95759.56;;;26.41;41.52
25526;BME280;13424;48.424;11.258;2023-05-29T10:13:21;95759.22;;;26.88;43.74
25526;BME280;13424;48.424;11.258;2023-05-29T10:15:51;95759.13;;;26.52;41.49
25526;BME280;13424;48.424;11.258;2023-05-29T10:18:23;95763.38;;;27.31;41.06
25526;BME280;13424;48.424;11.258;2023-05-29T10:20:52;95761.31;;;27.04;43.39
25526;BME280;13424;48.424;11.258;2023-05-29T10:23:22;95757.81;;;26.70;41.47
25526;BME280;13424;48.424;11.258;2023-05-29T10:25:55;95754.50;;;24.63;44.28
25526;BME280;13424;48.424;11.258;2023-05-29T10:28:22;95753.00;;;26.55;44.12
25526;BME280;13424;48.424;11.258;2023-05-29T10:31:05;95754.41;;;26.85;42.61
25526;BME280;13424;48.424;11.258;2023-05-29T10:34:39;95755.16;;;27.31;41.73
25526;BME280;13424;48.424;11.258;2023-05-29T10:37:28;95751.72;;;27.59;42.46
25526;BME280;13424;48.424;11.258;2023-05-29T10:40:10;95753.22;;;27.44;40.21
25526;BME280;13424;48.424;11.258;2023-05-29T10:42:49;95754.50;;;27.34;41.37
25526;BME280;13424;48.424;11.258;2023-05-29T10:50:45;95739.44;;;26.58;42.40
25526;BME280;13424;48.424;11.258;2023-05-29T10:53:16;95751.03;;;27.25;40.30
25526;BME280;13424;48.424;11.258;2023-05-29T10:55:43;95753.06;;;27.89;41.78
25526;BME280;13424;48.424;11.258;2023-05-29T10:58:18;95750.31;;;27.65;39.66
25526;BME280;13424;48.424;11.258;2023-05-29T11:00:45;95743.25;;;26.78;40.64
25526;BME280;13424;48.424;11.258;2023-05-29T11:03:15;95739.44;;;27.28;41.11
25526;BME280;13424;48.424;11.258;2023-05-29T11:06:07;95739.63;;;27.47;40.84
25526;BME280;13424;48.424;11.258;2023-05-29T11:08:54;95739.09;;;27.05;41.83
25526;BME280;13424;48.424;11.258;2023-05-29T11:11:31;95739.19;;;26.30;41.18
25526;BME280;13424;48.424;11.258;2023-05-29T11:14:03;95739.97;;;26.39;41.13
25526;BME280;13424;48.424;11.258;2023-05-29T11:18:57;95747.25;;;25.94;42.51
25526;BME280;13424;48.424;11.258;2023-05-29T11:24:26;95746.28;;;27.10;42.15
25526;BME280;13424;48.424;11.258;2023-05-29T11:26:57;95749.03;;;26.64;42.15
25526;BME280;13424;48.424;11.258;2023-05-29T11:29:28;95735.72;;;26.99;41.25
25526;BME280;13424;48.424;11.258;2023-05-29T11:34:25;95742.84;;;27.37;39.62
25526;BME280;13424;48.424;11.258;2023-05-29T11:36:53;95743.19;;;27.36;40.76
25526;BME280;13424;48.424;11.258;2023-05-29T11:39:19;95752.06;;;27.69;40.56
25526;BME280;13424;48.424;11.258;2023-05-29T11:41:45;95744.97;;;27.80;42.79
25526;BME280;13424;48.424;11.258;2023-05-29T11:44:16;95735.53;;;28.06;39.64
25526;BME280;13424;48.424;11.258;2023-05-29T11:46:42;95747.38;;;28.10;41.94
25526;BME280;13424;48.424;11.258;2023-05-29T11:49:08;95742.66;;;28.23;40.51
25526;BME280;13424;48.424;11.258;2023-05-29T11:51:34;95740.03;;;27.98;40.17
25526;BME280;13424;48.424;11.258;2023-05-29T11:54:00;95747.59;;;27.89;41.86
25526;BME280;13424;48.424;11.258;2023-05-29T11:56:27;95734.53;;;27.98;40.07
25526;BME280;13424;48.424;11.258;2023-05-29T11:58:54;95730.63;;;28.27;38.69
25526;BME280;13424;48.424;11.258;2023-05-29T12:01:25;95741.66;;;27.02;42.36
25526;BME280;13424;48.424;11.258;2023-05-29T12:03:52;95736.28;;;26.81;41.31
25526;BME280;13424;48.424;11.258;2023-05-29T12:06:34;95734.78;;;26.59;42.74
25526;BME280;13424;48.424;11.258;2023-05-29T12:09:02;95734.63;;;27.25;42.26
25526;BME280;13424;48.424;11.258;2023-05-29T12:11:29;95748.09;;;27.42;39.84
25526;BME280;13424;48.424;11.258;2023-05-29T12:13:59;95738.66;;;26.70;41.59
25526;BME280;13424;48.424;11.258;2023-05-29T12:16:27;95744.44;;;27.38;40.68
25526;BME280;13424;48.424;11.258;2023-05-29T12:18:55;95727.13;;;27.10;39.59
25526;BME280;13424;48.424;11.258;2023-05-29T12:21:22;95727.78;;;27.31;40.00
25526;BME280;13424;48.424;11.258;2023-05-29T12:23:52;95734.44;;;28.23;42.57
25526;BME280;13424;48.424;11.258;2023-05-29T12:26:22;95729.41;;;27.97;41.34
25526;BME280;13424;48.424;11.258;2023-05-29T12:28:50;95733.44;;;28.15;39.57
25526;BME280;13424;48.424;11.258;2023-05-29T12:31:27;95732.94;;;27.97;41.77
25526;BME280;13424;48.424;11.258;2023-05-29T12:34:00;95734.53;;;27.98;39.22
25526;BME280;13424;48.424;11.258;2023-05-29T12:36:26;95734.84;;;27.32;38.88
25526;BME280;13424;48.424;11.258;2023-05-29T12:38:52;95733.53;;;28.31;39.57
25526;BME280;13424;48.424;11.258;2023-05-29T12:41:25;95731.34;;;27.19;40.58
25526;BME280;13424;48.424;11.258;2023-05-29T12:44:47;95734.75;;;28.05;40.66
25526;BME280;13424;48.424;11.258;2023-05-29T12:47:14;95733.16;;;28.04;39.24
25526;BME280;13424;48.424;11.258;2023-05-29T12:49:40;95733.13;;;28.45;37.57
25526;BME280;13424;48.424;11.258;2023-05-29T12:52:06;95736.19;;;27.75;40.90
25526;BME280;13424;48.424;11.258;2023-05-29T12:54:33;95737.00;;;27.75;38.18
25526;BME280;13424;48.424;11.258;2023-05-29T12:56:59;95728.22;;;28.38;38.23
25526;BME280;13424;48.424;11.258;2023-05-29T12:59:26;95735.94;;;28.48;37.50
25526;BME280;13424;48.424;11.258;2023-05-29T13:01:52;95728.00;;;27.38;38.34
25526;BME280;13424;48.424;11.258;2023-05-29T13:04:18;95733.06;;;28.73;40.26
25526;BME280;13424;48.424;11.258;2023-05-29T13:06:44;95728.56;;;28.80;38.54
25526;BME280;13424;48.424;11.258;2023-05-29T13:12:42;95736.88;;;28.84;37.39
25526;BME280;13424;48.424;11.258;2023-05-29T13:15:10;95726.41;;;28.74;37.43
25526;BME280;13424;48.424;11.258;2023-05-29T13:17:36;95723.25;;;29.35;36.14
25526;BME280;13424;48.424;11.258;2023-05-29T13:20:02;95724.28;;;28.83;36.39
25526;BME280;13424;48.424;11.258;2023-05-29T13:22:33;95718.50;;;28.13;36.86
25526;BME280;13424;48.424;11.258;2023-05-29T13:25:06;95722.28;;;28.80;38.09
25526;BME280;13424;48.424;11.258;2023-05-29T13:27:33;95721.50;;;27.95;40.82
25526;BME280;13424;48.424;11.258;2023-05-29T13:30:00;95722.19;;;28.32;37.38
25526;BME280;13424;48.424;11.258;2023-05-29T13:32:26;95724.66;;;28.09;37.49
25526;BME280;13424;48.424;11.258;2023-05-29T13:39:45;95731.38;;;28.52;36.62
25526;BME280;13424;48.424;11.258;2023-05-29T13:42:11;95725.75;;;27.93;36.40
25526;BME280;13424;48.424;11.258;2023-05-29T13:44:38;95723.66;;;27.49;39.00
25526;BME280;13424;48.424;11.258;2023-05-29T13:47:06;95721.28;;;28.00;36.20